Observations
| Time | Sensor | AQI | SAQ | Temp °C | Hum % | Pres Pa | CO μg/m³ | H₂S μg/m³ | NO μg/m³ | NO₂ μg/m³ | O₃ μg/m³ | SO₂ μg/m³ | CO₂e PPM | VOC PPM | PM1 μg/m³ | PM2.5 μg/m³ | PM4 μg/m³ | PM10 μg/m³ | TPS µm |
|---|---|---|---|---|---|---|---|---|---|---|---|---|---|---|---|---|---|---|---|
| Tuesday 11 August 2026 | |||||||||||||||||||
| 00:26 | Trim Patrick St | 2 | 14 | 67 | 85,630 | 0.18 | 5.35 | 2.78 | 28.6 | 17.05 | 0 | 3.71 | 7.52 | 8.27 | |||||
| 00:25 | Trim Patrick St | 2 | 14 | 67 | 85,108 | 0.18 | 5.76 | 2.67 | 32.28 | 14.77 | 0 | 2.86 | 7.52 | 8.27 | |||||
| 00:23 | Trim Patrick St | 2 | 14 | 67 | 84,127 | 0.19 | 5.11 | 2.8 | 32.24 | 14.16 | 0 | 3.71 | 7.53 | 8.28 | |||||
| 00:20 | Trim Market St | 2 | 15.4 | 61 | 57,881 | 0.21 | 0 | 1.56 | 12.68 | 41.82 | 0 | 0.71 | 2.99 | 4.12 | |||||
| 00:20 | Trim Patrick St | 2 | 14.1 | 67 | 83,428 | 0.17 | 5.32 | 2.48 | 29.89 | 15.99 | 0 | 2.86 | 6.81 | 7.49 | |||||
| 00:19 | Trim Market St | 2 | 15.4 | 61 | 57,883 | 0.2 | 0 | 1.32 | 14.02 | 40.67 | 0 | 2.14 | 3.99 | 5.48 | |||||
| 00:19 | Trim Patrick St | 2 | 14.1 | 67 | 83,127 | 0.18 | 4.67 | 2.78 | 27.02 | 17.02 | 0 | 2.86 | 6.82 | 7.5 | |||||
| 00:18 | Trim Market St | 2 | 15.4 | 61 | 57,883 | 0.21 | 0 | 1.23 | 14.42 | 38.6 | 0 | 1.43 | 3.5 | 4.8 | |||||
| 00:18 | Trim Patrick St | 2 | 14.2 | 67 | 82,857 | 0.18 | 5.35 | 2.78 | 27.94 | 18.58 | 0 | 2.86 | 7.54 | 8.3 | |||||
| 00:17 | Trim Market St | 2 | 15.4 | 61 | 57,885 | 0.21 | 0 | 1.26 | 12.42 | 39.34 | 0 | 1.43 | 3 | 4.8 | |||||
| 00:17 | Trim Patrick St | 2 | 14.2 | 66 | 82,585 | 0.18 | 6.47 | 2.68 | 28.84 | 16.02 | 0 | 3.71 | 7.56 | 8.31 | |||||
| 00:16 | Trim Market St | 2 | 15.4 | 61 | 57,885 | 0.21 | 0 | 1.27 | 13.27 | 41.01 | 0 | 1.43 | 3 | 4.8 | |||||
| 00:16 | Trim Patrick St | 2 | 14.2 | 67 | 82,335 | 0.16 | 6.34 | 3.13 | 39.47 | 10.76 | 0 | 2.86 | 6.82 | 7.51 | |||||
| 00:15 | Trim Market St | 2 | 15.5 | 61 | 57,885 | 0.2 | 0 | 1.26 | 11.87 | 40.25 | 0 | 2.14 | 3.5 | 4.8 | |||||
| 00:15 | Trim Patrick St | 2 | 14.2 | 66 | 81,976 | 0.16 | 5.17 | 2.97 | 32.94 | 14.1 | 0 | 2 | 6.83 | 7.51 | |||||
| 00:14 | Trim Market St | 2 | 15.5 | 61 | 57,885 | 0.2 | 0 | 1.58 | 13.2 | 36.73 | 0 | 0.71 | 2 | 2.75 | |||||
| 00:14 | Trim Patrick St | 2 | 14.2 | 66 | 81,738 | 0.16 | 5.04 | 3.01 | 30.25 | 15.43 | 0 | 3.71 | 7.56 | 8.31 | |||||
| 00:13 | Trim Market St | 2 | 15.5 | 60 | 57,887 | 0.2 | 0 | 1.37 | 11.46 | 43.01 | 0 | 1.43 | 3 | 4.11 | |||||
| 00:13 | Trim Patrick St | 2 | 14.3 | 66 | 81,545 | 0.16 | 5.25 | 3.05 | 30.64 | 15.65 | 0 | 2.86 | 7.56 | 8.31 | |||||
| 00:12 | Trim Market St | 2 | 15.5 | 60 | 57,885 | 0.2 | 0 | 1.27 | 18.94 | 34.59 | 0 | 2.14 | 3.5 | 5.48 | |||||